createdAt,value
2019-03-18T00:00:41.171Z,11.30
2019-03-18T00:01:41.142Z,11.30
2019-03-18T00:02:41.121Z,10.80
2019-03-18T00:03:41.098Z,10.90
2019-03-18T00:04:41.074Z,11.70
2019-03-18T00:05:41.059Z,11.00
2019-03-18T00:06:41.036Z,11.40
2019-03-18T00:07:41.009Z,11.00
2019-03-18T00:08:40.985Z,11.80
2019-03-18T00:09:40.959Z,11.40
2019-03-18T00:10:40.939Z,11.20
2019-03-18T00:11:40.919Z,11.50
2019-03-18T00:12:40.895Z,11.10
2019-03-18T00:13:40.869Z,11.30
2019-03-18T00:14:40.849Z,10.80
2019-03-18T00:15:40.825Z,11.00
2019-03-18T00:16:40.801Z,11.20
2019-03-18T00:18:40.761Z,11.90
2019-03-18T00:19:42.831Z,11.00
2019-03-18T00:20:40.708Z,11.50
2019-03-18T00:21:40.686Z,10.90
2019-03-18T00:22:40.662Z,11.00
2019-03-18T00:23:40.639Z,11.00
2019-03-18T00:24:40.617Z,11.30
2019-03-18T00:25:40.596Z,11.00
2019-03-18T00:26:40.572Z,11.10
2019-03-18T00:27:40.555Z,10.90
2019-03-18T00:28:40.525Z,10.80
2019-03-18T00:29:40.508Z,11.00
2019-03-18T00:30:40.478Z,10.60
2019-03-18T00:31:40.463Z,11.20
2019-03-18T00:32:40.437Z,10.70
2019-03-18T00:33:40.414Z,10.70
2019-03-18T00:34:40.399Z,10.70
2019-03-18T00:35:40.367Z,10.50
2019-03-18T00:36:40.347Z,11.00
2019-03-18T00:37:40.320Z,11.20
2019-03-18T00:38:40.350Z,10.80
2019-03-18T00:39:40.276Z,11.00
2019-03-18T00:40:40.261Z,10.40
2019-03-18T00:41:40.229Z,11.00
2019-03-18T00:42:40.204Z,10.90
2019-03-18T00:43:40.186Z,11.00
2019-03-18T00:44:40.158Z,10.80
2019-03-18T00:45:40.565Z,11.70
2019-03-18T00:46:40.116Z,10.50
2019-03-18T00:47:40.090Z,11.50
2019-03-18T00:48:40.068Z,11.10
2019-03-18T00:49:40.046Z,11.30
2019-03-18T00:50:40.021Z,11.00
2019-03-18T00:51:39.998Z,11.30
2019-03-18T00:52:39.984Z,11.40
2019-03-18T00:53:39.952Z,11.50
2019-03-18T00:54:39.926Z,11.30
2019-03-18T00:55:39.909Z,11.50
2019-03-18T00:56:39.881Z,11.60
2019-03-18T00:57:39.863Z,11.10
2019-03-18T00:58:39.838Z,12.10
2019-03-18T00:59:39.814Z,11.00
2019-03-18T01:00:39.792Z,11.00
2019-03-18T01:01:39.775Z,11.00
2019-03-18T01:02:39.752Z,11.60
2019-03-18T01:03:39.726Z,11.20
2019-03-18T01:04:39.696Z,11.10
2019-03-18T01:05:39.676Z,10.80
2019-03-18T01:06:39.657Z,11.30
2019-03-18T01:07:39.637Z,11.00
2019-03-18T01:08:39.606Z,11.60
2019-03-18T01:09:39.583Z,11.80
2019-03-18T01:10:39.569Z,11.30
2019-03-18T01:11:39.545Z,11.70
2019-03-18T01:12:39.525Z,11.40
2019-03-18T01:13:39.493Z,12.00
2019-03-18T01:14:39.467Z,11.80
2019-03-18T01:15:39.446Z,11.40
2019-03-18T01:16:39.424Z,11.50
2019-03-18T01:17:39.681Z,11.90
2019-03-18T01:18:39.386Z,11.40
2019-03-18T01:19:39.356Z,12.00
2019-03-18T01:20:39.336Z,12.50
2019-03-18T01:21:39.307Z,11.90
2019-03-18T01:22:39.283Z,11.70
2019-03-18T01:23:39.264Z,12.10
2019-03-18T01:24:39.238Z,11.30
2019-03-18T01:25:39.215Z,12.10
2019-03-18T01:26:39.195Z,11.80
2019-03-18T01:27:39.167Z,11.60
2019-03-18T01:28:39.154Z,11.80
2019-03-18T01:29:39.143Z,11.80
2019-03-18T01:30:39.100Z,11.80
2019-03-18T01:31:39.081Z,11.80
2019-03-18T01:32:39.064Z,12.20
2019-03-18T01:33:39.033Z,11.90
2019-03-18T01:34:39.005Z,12.00
2019-03-18T01:35:40.023Z,12.30
2019-03-18T01:36:38.963Z,11.90
2019-03-18T01:37:38.944Z,11.60
2019-03-18T01:38:38.915Z,12.20
2019-03-18T01:39:38.893Z,12.30
2019-03-18T01:40:38.879Z,12.30
2019-03-18T01:41:38.856Z,12.40
2019-03-18T01:42:38.910Z,11.90
2019-03-18T01:43:38.799Z,12.50
2019-03-18T01:44:38.778Z,12.00
2019-03-18T01:45:40.924Z,12.30
2019-03-18T01:46:38.731Z,12.00
2019-03-18T01:47:38.711Z,12.40
2019-03-18T01:48:38.689Z,11.50
2019-03-18T01:49:38.663Z,12.30
2019-03-18T01:50:38.637Z,11.50
2019-03-18T01:51:38.618Z,11.50
2019-03-18T01:52:38.595Z,12.20
2019-03-18T01:53:38.569Z,11.90
2019-03-18T01:54:38.626Z,11.60
2019-03-18T01:55:38.524Z,11.70
2019-03-18T01:56:38.501Z,11.50
2019-03-18T01:57:38.483Z,11.80
2019-03-18T01:58:38.457Z,12.30
2019-03-18T01:59:38.431Z,11.80
2019-03-18T02:00:38.411Z,10.90
2019-03-18T02:01:38.392Z,11.70
2019-03-18T02:02:38.362Z,11.00
2019-03-18T02:03:38.340Z,12.10
2019-03-18T02:04:38.318Z,11.70
2019-03-18T02:05:38.343Z,12.10
2019-03-18T02:06:38.269Z,11.80
2019-03-18T02:07:38.255Z,12.00
2019-03-18T02:08:38.224Z,12.00
2019-03-18T02:09:38.199Z,12.20
2019-03-18T02:10:38.177Z,11.90
2019-03-18T02:11:38.154Z,11.90
2019-03-18T02:12:38.131Z,11.90
2019-03-18T02:13:38.105Z,12.30
2019-03-18T02:14:38.089Z,12.20
2019-03-18T02:15:38.065Z,12.10
2019-03-18T02:16:38.037Z,11.80
2019-03-18T02:17:38.019Z,12.00
2019-03-18T02:18:37.993Z,11.70
2019-03-18T02:19:37.969Z,11.70
2019-03-18T02:20:37.944Z,12.30
2019-03-18T02:21:37.921Z,12.60
2019-03-18T02:22:37.896Z,12.40
2019-03-18T02:23:37.876Z,12.20
2019-03-18T02:24:37.858Z,12.20
2019-03-18T02:25:37.830Z,12.50
2019-03-18T02:26:37.811Z,12.40
2019-03-18T02:27:37.784Z,12.60
2019-03-18T02:28:37.762Z,12.30
2019-03-18T02:29:37.735Z,12.20
2019-03-18T02:30:37.718Z,12.10
2019-03-18T02:31:37.694Z,12.10
2019-03-18T02:32:37.667Z,12.00
2019-03-18T02:33:37.645Z,11.80
2019-03-18T02:34:37.621Z,11.90
2019-03-18T02:35:37.654Z,12.00
2019-03-18T02:36:37.572Z,12.60
2019-03-18T02:37:37.553Z,12.10
2019-03-18T02:38:37.526Z,12.90
2019-03-18T02:39:37.501Z,12.20
2019-03-18T02:40:37.480Z,11.80
2019-03-18T02:41:37.461Z,12.10
2019-03-18T02:42:37.432Z,11.80
2019-03-18T02:43:37.421Z,11.70
2019-03-18T02:44:37.397Z,11.80
2019-03-18T02:45:37.382Z,11.80
2019-03-18T02:46:37.350Z,11.30
2019-03-18T02:47:37.337Z,11.40
2019-03-18T02:48:37.321Z,11.70
2019-03-18T02:49:37.312Z,11.90
2019-03-18T02:50:37.252Z,11.50
2019-03-18T02:51:37.226Z,11.80
2019-03-18T02:52:37.204Z,11.80
2019-03-18T02:53:37.189Z,12.00
2019-03-18T02:54:37.161Z,12.20
2019-03-18T02:55:37.134Z,12.40
2019-03-18T02:56:37.120Z,12.00
2019-03-18T02:57:37.096Z,12.40
2019-03-18T02:58:37.066Z,12.50
2019-03-18T02:59:37.043Z,12.50
2019-03-18T03:00:37.020Z,12.20
2019-03-18T03:01:36.999Z,12.50
2019-03-18T03:02:36.970Z,12.30
2019-03-18T03:03:37.424Z,12.20
2019-03-18T03:04:36.928Z,12.10
2019-03-18T03:05:36.906Z,12.60
2019-03-18T03:06:36.879Z,12.80
2019-03-18T03:07:36.856Z,11.90
2019-03-18T03:08:36.830Z,12.40
2019-03-18T03:09:36.809Z,12.90
2019-03-18T03:10:36.786Z,12.70
2019-03-18T03:11:36.760Z,12.10
2019-03-18T03:12:36.736Z,12.20
2019-03-18T03:13:36.715Z,11.90
2019-03-18T03:14:36.699Z,11.80
2019-03-18T03:15:36.667Z,12.10
2019-03-18T03:16:36.648Z,11.70
2019-03-18T03:17:36.638Z,11.90
2019-03-18T03:18:36.603Z,12.10
2019-03-18T03:19:36.589Z,12.10
2019-03-18T03:20:36.568Z,12.20
2019-03-18T03:21:36.544Z,12.00
2019-03-18T03:22:36.511Z,12.50
2019-03-18T03:23:36.483Z,12.40
2019-03-18T03:24:36.460Z,11.70
2019-03-18T03:25:36.439Z,12.50
2019-03-18T03:26:36.413Z,12.60
2019-03-18T03:27:36.395Z,12.70
2019-03-18T03:28:36.370Z,13.10
2019-03-18T03:29:36.347Z,12.80
2019-03-18T03:30:36.325Z,13.00
2019-03-18T03:31:36.318Z,12.50
2019-03-18T03:32:36.336Z,12.90
2019-03-18T03:33:36.309Z,12.80
2019-03-18T03:34:36.242Z,12.50
2019-03-18T03:35:36.205Z,12.70
2019-03-18T03:36:36.183Z,12.40
2019-03-18T03:37:36.156Z,12.40
2019-03-18T03:38:36.138Z,12.40
2019-03-18T03:39:36.109Z,12.90
2019-03-18T03:40:36.087Z,12.90
2019-03-18T03:41:36.069Z,12.90
2019-03-18T03:42:36.046Z,12.40
2019-03-18T03:43:36.018Z,12.30
2019-03-18T03:44:35.998Z,12.30
2019-03-18T03:45:35.974Z,12.30
2019-03-18T03:46:42.828Z,11.30
2019-03-18T03:47:35.932Z,11.70
2019-03-18T03:48:35.902Z,11.50
2019-03-18T03:49:35.879Z,11.20
2019-03-18T03:50:35.860Z,11.70
2019-03-18T03:51:35.831Z,11.60
2019-03-18T03:52:35.812Z,11.30
2019-03-18T03:53:35.794Z,10.70
2019-03-18T03:54:35.756Z,11.20
2019-03-18T03:55:35.742Z,11.20
2019-03-18T03:56:35.744Z,11.70
2019-03-18T03:57:35.693Z,11.60
2019-03-18T03:58:35.672Z,11.60
2019-03-18T03:59:35.649Z,11.80
2019-03-18T04:00:35.621Z,12.00
2019-03-18T04:01:35.606Z,11.60
2019-03-18T04:02:35.585Z,10.70
2019-03-18T04:03:38.684Z,11.10
2019-03-18T04:04:35.538Z,11.40
2019-03-18T04:05:35.515Z,11.50
2019-03-18T04:06:35.483Z,11.50
2019-03-18T04:07:35.459Z,10.70
2019-03-18T04:08:35.442Z,11.30
2019-03-18T04:09:35.419Z,12.00
2019-03-18T04:10:35.387Z,11.30
2019-03-18T04:11:35.411Z,11.70
2019-03-18T04:12:35.347Z,11.80
2019-03-18T04:13:35.324Z,12.30
2019-03-18T04:14:35.299Z,11.60
2019-03-18T04:15:35.273Z,11.10
2019-03-18T04:16:35.252Z,11.80
2019-03-18T04:17:35.234Z,11.70
2019-03-18T04:18:35.203Z,12.10
2019-03-18T04:19:35.188Z,12.00
2019-03-18T04:20:35.158Z,12.20
2019-03-18T04:21:35.137Z,11.60
2019-03-18T04:22:35.142Z,11.80
2019-03-18T04:23:35.088Z,12.00
2019-03-18T04:24:35.065Z,12.60
2019-03-18T04:25:35.043Z,12.30
2019-03-18T04:26:35.018Z,12.20
2019-03-18T04:27:35.000Z,12.40
2019-03-18T04:28:34.975Z,12.80
2019-03-18T04:29:34.948Z,11.90
2019-03-18T04:30:34.923Z,12.00
2019-03-18T04:31:34.908Z,12.60
2019-03-18T04:32:34.882Z,12.30
2019-03-18T04:33:34.855Z,12.20
2019-03-18T04:34:34.832Z,12.00
2019-03-18T04:35:34.811Z,12.50
2019-03-18T04:36:34.786Z,12.90
2019-03-18T04:37:34.765Z,12.10
2019-03-18T04:38:34.743Z,12.40
2019-03-18T04:39:34.714Z,12.10
2019-03-18T04:40:34.690Z,12.10
2019-03-18T04:41:34.668Z,12.60
2019-03-18T04:42:34.646Z,12.20
2019-03-18T04:43:34.624Z,11.70
2019-03-18T04:44:34.597Z,12.50
2019-03-18T04:45:34.578Z,12.60
2019-03-18T04:46:34.551Z,12.80
2019-03-18T04:47:34.532Z,12.40
2019-03-18T04:48:34.504Z,12.30
2019-03-18T04:49:34.484Z,12.40
2019-03-18T04:50:34.457Z,12.50
2019-03-18T04:51:34.438Z,12.00
2019-03-18T04:52:34.415Z,12.50
2019-03-18T04:53:34.390Z,12.20
2019-03-18T04:54:34.369Z,12.40
2019-03-18T04:55:34.343Z,12.00
2019-03-18T04:56:34.319Z,12.50
2019-03-18T04:57:34.297Z,11.70
2019-03-18T04:58:34.270Z,11.90
2019-03-18T04:59:34.249Z,11.90
2019-03-18T05:00:34.227Z,12.20
2019-03-18T05:01:34.205Z,12.10
2019-03-18T05:02:34.179Z,12.00
2019-03-18T05:03:34.152Z,12.10
2019-03-18T05:04:34.133Z,12.30
2019-03-18T05:05:34.110Z,11.70
2019-03-18T05:06:34.089Z,11.40
2019-03-18T05:07:34.061Z,12.00
2019-03-18T05:08:34.041Z,12.00
2019-03-18T05:09:34.016Z,12.10
2019-03-18T05:10:33.993Z,12.30
2019-03-18T05:11:33.969Z,11.80
2019-03-18T05:12:33.952Z,11.60
2019-03-18T05:13:33.984Z,12.50
2019-03-18T05:14:33.898Z,13.40
2019-03-18T05:15:33.889Z,13.30
2019-03-18T05:16:33.855Z,12.80
2019-03-18T05:17:33.826Z,13.50
2019-03-18T05:18:36.519Z,13.00
2019-03-18T05:19:33.783Z,13.90
2019-03-18T05:20:33.764Z,14.00
2019-03-18T05:21:33.737Z,14.50
2019-03-18T05:22:33.712Z,13.70
2019-03-18T05:23:33.686Z,13.80
2019-03-18T05:24:33.671Z,13.60
2019-03-18T05:25:33.651Z,13.10
2019-03-18T05:26:33.628Z,13.70
2019-03-18T05:27:33.603Z,13.40
2019-03-18T05:28:33.575Z,13.30
2019-03-18T05:29:33.552Z,13.30
2019-03-18T05:30:33.531Z,13.00
2019-03-18T05:31:33.506Z,12.80
2019-03-18T05:32:33.480Z,13.00
2019-03-18T05:33:33.458Z,13.50
2019-03-18T05:34:33.438Z,13.70
2019-03-18T05:35:33.416Z,13.40
2019-03-18T05:36:33.393Z,13.50
2019-03-18T05:37:33.367Z,13.80
2019-03-18T05:38:33.340Z,13.70
2019-03-18T05:39:33.318Z,13.90
2019-03-18T05:40:33.297Z,13.60
2019-03-18T05:41:33.273Z,13.80
2019-03-18T05:42:33.243Z,13.30
2019-03-18T05:43:33.230Z,12.80
2019-03-18T05:44:33.204Z,13.10
2019-03-18T05:45:33.178Z,13.60
2019-03-18T05:46:33.158Z,13.50
2019-03-18T05:47:39.146Z,12.30
2019-03-18T05:48:33.110Z,13.40
2019-03-18T05:49:33.090Z,12.90
2019-03-18T05:50:33.065Z,12.90
2019-03-18T05:51:33.038Z,12.60
2019-03-18T05:52:33.016Z,12.90
2019-03-18T05:53:33.029Z,12.80
2019-03-18T05:54:32.977Z,12.80
2019-03-18T05:55:32.950Z,13.40
2019-03-18T05:56:32.924Z,12.70
2019-03-18T05:57:32.904Z,13.20
2019-03-18T05:58:32.878Z,13.20
2019-03-18T05:59:32.855Z,12.70
2019-03-18T06:00:32.832Z,12.60
2019-03-18T06:01:32.827Z,12.30
2019-03-18T06:02:32.790Z,12.30
2019-03-18T06:03:32.761Z,12.50
2019-03-18T06:04:32.740Z,12.30
2019-03-18T06:05:32.723Z,12.60
2019-03-18T06:06:32.695Z,12.10
2019-03-18T06:07:32.678Z,11.70
2019-03-18T06:08:32.652Z,11.50
2019-03-18T06:09:32.625Z,12.40
2019-03-18T06:10:32.615Z,12.60
2019-03-18T06:11:32.580Z,12.60
2019-03-18T06:12:32.557Z,11.70
2019-03-18T06:13:32.532Z,12.70
2019-03-18T06:14:32.506Z,12.70
2019-03-18T06:15:32.482Z,11.90
2019-03-18T06:16:32.464Z,12.40
2019-03-18T06:17:32.445Z,12.00
2019-03-18T06:18:32.416Z,12.50
2019-03-18T06:19:32.389Z,12.70
2019-03-18T06:20:32.373Z,12.70
2019-03-18T06:21:32.348Z,12.70
2019-03-18T06:22:32.320Z,12.80
2019-03-18T06:23:32.301Z,12.60
2019-03-18T06:24:32.278Z,12.90
2019-03-18T06:25:32.324Z,12.40
2019-03-18T06:26:32.237Z,13.00
2019-03-18T06:27:32.210Z,12.40
2019-03-18T06:28:32.192Z,13.20
2019-03-18T06:29:32.162Z,14.00
2019-03-18T06:30:32.136Z,13.80
2019-03-18T06:31:32.118Z,13.20
2019-03-18T06:32:32.100Z,13.20
2019-03-18T06:33:32.073Z,14.00
2019-03-18T06:34:32.044Z,15.00
2019-03-18T06:35:32.033Z,14.30
2019-03-18T06:36:32.003Z,14.20
2019-03-18T06:37:31.981Z,12.70
2019-03-18T06:38:31.960Z,12.70
2019-03-18T06:39:31.929Z,11.60
2019-03-18T06:40:31.907Z,12.30
2019-03-18T06:41:31.887Z,12.80
2019-03-18T06:42:31.861Z,12.60
2019-03-18T06:43:31.836Z,13.20
2019-03-18T06:44:31.815Z,12.90
2019-03-18T06:45:31.802Z,12.70
2019-03-18T06:46:31.777Z,12.70
2019-03-18T06:47:31.752Z,12.80
2019-03-18T06:48:31.725Z,12.90
2019-03-18T06:49:31.698Z,13.60
2019-03-18T06:50:31.678Z,13.30
2019-03-18T06:51:31.653Z,12.90
2019-03-18T06:52:31.633Z,12.60
2019-03-18T06:53:31.613Z,12.60
2019-03-18T06:54:31.608Z,12.40
2019-03-18T06:55:31.560Z,12.60
2019-03-18T06:56:31.544Z,12.30
2019-03-18T06:57:31.517Z,12.60
2019-03-18T06:58:31.495Z,13.10
2019-03-18T06:59:31.467Z,12.80
2019-03-18T07:00:31.449Z,12.80
2019-03-18T07:01:31.425Z,13.60
2019-03-18T07:02:31.401Z,13.20
2019-03-18T07:03:31.381Z,13.00
2019-03-18T07:04:31.355Z,13.40
2019-03-18T07:05:31.337Z,12.80
2019-03-18T07:06:31.310Z,12.20
2019-03-18T07:07:31.291Z,12.20
2019-03-18T07:08:31.265Z,12.50
2019-03-18T07:09:31.241Z,12.00
2019-03-18T07:10:31.221Z,12.40
2019-03-18T07:11:31.197Z,13.00
2019-03-18T07:12:31.175Z,12.20
2019-03-18T07:13:31.151Z,12.70
2019-03-18T07:14:31.131Z,12.20
2019-03-18T07:15:31.117Z,12.10
2019-03-18T07:16:31.084Z,12.50
2019-03-18T07:17:31.061Z,12.10
2019-03-18T07:18:31.037Z,12.60
2019-03-18T07:19:31.015Z,16.90
2019-03-18T07:20:30.994Z,13.70
2019-03-18T07:21:30.971Z,12.70
2019-03-18T07:22:30.944Z,12.30
2019-03-18T07:23:30.918Z,12.20
2019-03-18T07:24:30.899Z,12.30
2019-03-18T07:25:30.877Z,12.00
2019-03-18T07:26:30.853Z,12.50
2019-03-18T07:27:30.835Z,12.10
2019-03-18T07:28:30.808Z,12.00
2019-03-18T07:29:30.789Z,12.00
2019-03-18T07:30:30.762Z,11.10
2019-03-18T07:31:30.741Z,11.30
2019-03-18T07:32:30.719Z,11.30
2019-03-18T07:33:30.706Z,11.10
2019-03-18T07:34:30.675Z,11.80
2019-03-18T07:35:30.651Z,12.00
2019-03-18T07:36:30.626Z,11.50
2019-03-18T07:37:30.610Z,11.80
2019-03-18T07:38:30.586Z,12.10
2019-03-18T07:39:30.562Z,12.50
2019-03-18T07:40:30.547Z,11.80
2019-03-18T07:41:30.522Z,12.00
2019-03-18T07:42:30.495Z,11.40
2019-03-18T07:43:30.486Z,11.50
2019-03-18T07:44:30.449Z,11.20
2019-03-18T07:45:30.496Z,11.60
2019-03-18T07:46:30.403Z,11.80
2019-03-18T07:47:30.383Z,11.40
2019-03-18T07:48:31.569Z,11.00
2019-03-18T07:49:30.338Z,10.90
2019-03-18T07:50:30.311Z,11.30
2019-03-18T07:51:30.297Z,11.90
2019-03-18T07:52:30.271Z,11.00
2019-03-18T07:53:30.255Z,11.00
2019-03-18T07:54:32.999Z,10.80
2019-03-18T07:55:30.205Z,11.50
2019-03-18T07:56:30.182Z,11.30
2019-03-18T07:57:32.645Z,10.80
2019-03-18T07:58:30.143Z,11.30
2019-03-18T07:59:30.133Z,10.90
2019-03-18T08:00:30.095Z,10.70
2019-03-18T08:01:30.073Z,11.50
2019-03-18T08:02:30.072Z,10.90
2019-03-18T08:03:30.026Z,10.80
2019-03-18T08:04:37.439Z,10.50
2019-03-18T08:05:29.983Z,10.50
2019-03-18T08:06:29.958Z,10.60
2019-03-18T08:07:29.941Z,11.40
2019-03-18T08:08:29.962Z,10.90
2019-03-18T08:09:29.898Z,10.60
2019-03-18T08:10:29.871Z,10.70
2019-03-18T08:11:29.846Z,11.10
2019-03-18T08:12:29.828Z,11.00
2019-03-18T08:13:29.812Z,10.90
2019-03-18T08:14:29.781Z,11.10
2019-03-18T08:15:29.759Z,11.00
2019-03-18T08:16:29.737Z,11.20
2019-03-18T08:17:29.731Z,10.80
2019-03-18T08:18:29.693Z,10.80
2019-03-18T08:19:29.669Z,10.60
2019-03-18T08:20:29.656Z,9.90
2019-03-18T08:21:29.630Z,11.30
2019-03-18T08:22:29.604Z,10.50
2019-03-18T08:23:29.581Z,10.90
2019-03-18T08:24:29.565Z,10.80
2019-03-18T08:25:29.548Z,10.60
2019-03-18T08:26:29.518Z,10.80
2019-03-18T08:27:29.496Z,10.40
2019-03-18T08:28:29.541Z,10.70
2019-03-18T08:29:29.455Z,11.40
2019-03-18T08:30:29.428Z,10.90
2019-03-18T08:31:29.420Z,11.20
2019-03-18T08:32:29.384Z,11.00
2019-03-18T08:33:29.364Z,11.30
2019-03-18T08:34:29.343Z,11.10
2019-03-18T08:35:29.317Z,11.20
2019-03-18T08:36:29.297Z,10.80
2019-03-18T08:37:29.279Z,11.10
2019-03-18T08:38:29.256Z,10.60
2019-03-18T08:39:29.230Z,11.40
2019-03-18T08:40:29.214Z,10.70
2019-03-18T08:41:29.184Z,10.70
2019-03-18T08:42:29.163Z,10.10
2019-03-18T08:43:29.138Z,10.40
2019-03-18T08:44:29.118Z,10.30
2019-03-18T08:45:29.095Z,10.30
2019-03-18T08:46:29.072Z,10.00
2019-03-18T08:47:29.050Z,11.30
2019-03-18T08:48:29.032Z,11.10
2019-03-18T08:49:29.006Z,10.80
2019-03-18T08:50:28.985Z,10.90
2019-03-18T08:51:28.970Z,11.10
2019-03-18T08:52:28.933Z,11.00
2019-03-18T08:53:28.914Z,11.00
2019-03-18T08:54:28.894Z,10.60
2019-03-18T08:55:28.872Z,10.60
2019-03-18T08:56:29.719Z,10.40
2019-03-18T08:57:28.834Z,10.60
2019-03-18T08:58:28.810Z,10.60
2019-03-18T08:59:28.788Z,11.00
2019-03-18T09:00:28.760Z,10.70
2019-03-18T09:01:28.738Z,10.90
2019-03-18T09:02:28.718Z,10.40
2019-03-18T09:03:28.698Z,10.50
2019-03-18T09:04:28.671Z,10.90
2019-03-18T09:05:28.650Z,10.40
2019-03-18T09:06:30.317Z,11.40
2019-03-18T09:07:28.614Z,11.00
2019-03-18T09:08:28.585Z,11.60
2019-03-18T09:09:28.560Z,11.30
2019-03-18T09:10:28.537Z,11.10
2019-03-18T09:11:28.525Z,11.50
2019-03-18T09:12:28.497Z,11.20
2019-03-18T09:13:28.477Z,10.50
2019-03-18T09:14:28.452Z,11.10
2019-03-18T09:15:28.433Z,11.00
2019-03-18T09:16:28.406Z,11.70
2019-03-18T09:17:28.388Z,10.80
2019-03-18T09:18:28.366Z,11.10
2019-03-18T09:19:28.344Z,11.60
2019-03-18T09:20:28.323Z,10.60
2019-03-18T09:21:28.300Z,10.60
2019-03-18T09:22:28.281Z,10.70
2019-03-18T09:23:28.255Z,11.10
2019-03-18T09:24:28.231Z,11.00
2019-03-18T09:25:28.208Z,10.60
2019-03-18T09:26:28.188Z,10.90
2019-03-18T09:27:28.169Z,10.60
2019-03-18T09:28:28.145Z,10.30
2019-03-18T09:29:28.126Z,10.00
2019-03-18T09:30:28.102Z,10.10
2019-03-18T09:31:28.244Z,10.30
2019-03-18T09:32:28.056Z,10.00
2019-03-18T09:33:28.035Z,10.30
2019-03-18T09:34:28.014Z,11.30
2019-03-18T09:35:27.987Z,10.90
2019-03-18T09:36:27.969Z,11.10
2019-03-18T09:37:27.955Z,11.30
2019-03-18T09:38:27.926Z,11.20
2019-03-18T09:39:27.903Z,10.60
2019-03-18T09:40:29.385Z,10.60
2019-03-18T09:41:27.855Z,11.20
2019-03-18T09:42:27.835Z,11.50
2019-03-18T09:43:27.818Z,11.00
2019-03-18T09:44:27.825Z,11.30
2019-03-18T09:45:27.771Z,11.10
2019-03-18T09:46:27.747Z,12.00
2019-03-18T09:47:27.731Z,11.30
2019-03-18T09:48:27.710Z,11.60
2019-03-18T09:49:27.687Z,11.40
2019-03-18T09:50:27.661Z,11.30
2019-03-18T09:51:27.641Z,12.00
2019-03-18T09:52:27.617Z,12.00
2019-03-18T09:53:27.599Z,11.60
2019-03-18T09:54:27.577Z,11.80
2019-03-18T09:55:27.555Z,11.30
2019-03-18T09:56:27.533Z,11.60
2019-03-18T09:57:27.509Z,10.80
2019-03-18T09:58:27.489Z,11.90
2019-03-18T09:59:27.467Z,11.80
2019-03-18T10:00:27.460Z,11.30
2019-03-18T10:01:27.425Z,10.80
2019-03-18T10:02:27.401Z,11.90
2019-03-18T10:03:27.403Z,11.20
2019-03-18T10:04:27.358Z,11.50
2019-03-18T10:05:27.341Z,10.70
2019-03-18T10:06:27.317Z,11.90
2019-03-18T10:07:27.294Z,10.90
2019-03-18T10:08:27.300Z,13.30
2019-03-18T10:09:27.255Z,12.00
2019-03-18T10:10:27.230Z,10.90
2019-03-18T10:11:27.213Z,11.80
2019-03-18T10:12:27.187Z,11.50
2019-03-18T10:13:27.175Z,11.60
2019-03-18T10:14:27.146Z,11.50
2019-03-18T10:15:27.123Z,11.30
2019-03-18T10:16:27.103Z,11.50
2019-03-18T10:17:27.080Z,10.50
2019-03-18T10:18:27.059Z,10.70
2019-03-18T10:19:33.341Z,11.30
2019-03-18T10:20:27.018Z,11.20
2019-03-18T10:21:26.995Z,11.20
2019-03-18T10:22:26.975Z,11.30
2019-03-18T10:23:26.961Z,11.40
2019-03-18T10:24:26.933Z,11.00
2019-03-18T10:25:26.913Z,11.30
2019-03-18T10:26:26.891Z,11.50
2019-03-18T10:27:26.869Z,11.10
2019-03-18T10:28:26.857Z,11.30
2019-03-18T10:29:26.822Z,11.40
2019-03-18T10:30:26.804Z,11.10
2019-03-18T10:31:26.780Z,11.20
2019-03-18T10:32:26.765Z,13.40
2019-03-18T10:33:26.738Z,12.80
2019-03-18T10:34:26.716Z,11.40
2019-03-18T10:35:26.701Z,11.90
2019-03-18T10:36:26.680Z,12.10
2019-03-18T10:37:26.654Z,12.20
2019-03-18T10:38:26.633Z,12.50
2019-03-18T10:39:26.613Z,12.20
2019-03-18T10:40:26.593Z,11.50
2019-03-18T10:41:26.575Z,11.10
2019-03-18T10:42:26.548Z,11.70
2019-03-18T10:43:26.532Z,11.60
2019-03-18T10:44:26.504Z,12.60
2019-03-18T10:45:26.530Z,11.50
2019-03-18T10:46:26.594Z,12.40
2019-03-18T10:47:26.456Z,12.00
2019-03-18T10:48:26.424Z,12.30
2019-03-18T10:49:26.405Z,13.80
2019-03-18T10:50:26.390Z,11.90
2019-03-18T10:51:26.360Z,12.70
2019-03-18T10:52:26.342Z,12.00
2019-03-18T10:53:26.324Z,12.00
2019-03-18T10:54:31.058Z,12.70
2019-03-18T10:55:26.279Z,11.90
2019-03-18T10:56:26.263Z,13.20
2019-03-18T10:57:26.242Z,11.10
2019-03-18T10:58:26.231Z,12.50
2019-03-18T10:59:26.208Z,11.20
2019-03-18T11:00:26.186Z,11.50
2019-03-18T11:01:26.174Z,11.70
2019-03-18T11:02:26.150Z,11.30
2019-03-18T11:03:26.130Z,11.40
2019-03-18T11:04:26.115Z,11.60
2019-03-18T11:05:26.098Z,11.10
2019-03-18T11:06:26.078Z,11.10
2019-03-18T11:07:26.060Z,10.50
2019-03-18T11:08:26.048Z,11.30
2019-03-18T11:09:26.025Z,10.50
2019-03-18T11:10:26.008Z,11.30
2019-03-18T11:11:26.002Z,11.00
2019-03-18T11:12:25.973Z,10.80
2019-03-18T11:13:25.961Z,10.60
2019-03-18T11:14:25.937Z,11.80
2019-03-18T11:15:25.922Z,10.70
2019-03-18T11:16:25.905Z,11.80
2019-03-18T11:17:25.891Z,11.30
2019-03-18T11:18:25.871Z,11.50
2019-03-18T11:19:25.853Z,10.90
2019-03-18T11:20:25.833Z,11.50
2019-03-18T11:21:25.811Z,11.40
2019-03-18T11:22:25.793Z,11.00
2019-03-18T11:23:25.788Z,11.50
2019-03-18T11:24:25.759Z,11.90
2019-03-18T11:25:25.740Z,11.60
2019-03-18T11:26:25.720Z,11.60
2019-03-18T11:27:25.707Z,10.70
2019-03-18T11:28:25.686Z,10.90
2019-03-18T11:29:25.677Z,10.80
2019-03-18T11:30:25.653Z,11.40
2019-03-18T11:31:25.681Z,11.90
2019-03-18T11:32:25.611Z,11.50
2019-03-18T11:33:28.309Z,10.90
2019-03-18T11:34:25.600Z,10.80
2019-03-18T11:35:25.556Z,10.30
2019-03-18T11:36:25.540Z,10.60
2019-03-18T11:38:43.101Z,11.00
2019-03-18T11:39:43.085Z,11.20
2019-03-18T11:40:43.061Z,11.10
2019-03-18T11:41:43.045Z,12.10
2019-03-18T11:42:43.025Z,12.00
2019-03-18T11:43:43.011Z,13.10
2019-03-18T11:44:42.988Z,13.30
2019-03-18T11:45:42.963Z,13.00
2019-03-18T11:46:42.946Z,13.10
2019-03-18T11:47:42.925Z,12.60
2019-03-18T11:48:42.908Z,13.50
2019-03-18T11:49:42.882Z,12.90
2019-03-18T11:50:42.869Z,12.80
2019-03-18T11:51:42.849Z,12.80
2019-03-18T11:52:42.827Z,13.00
2019-03-18T11:53:42.810Z,12.10
2019-03-18T11:54:42.787Z,11.50
2019-03-18T11:55:42.780Z,11.80
2019-03-18T11:56:42.751Z,11.90
2019-03-18T11:57:42.741Z,12.30
2019-03-18T11:58:42.717Z,12.30
2019-03-18T11:59:42.703Z,12.10
2019-03-18T12:00:42.680Z,12.20
2019-03-18T12:01:42.668Z,12.10
2019-03-18T12:02:42.645Z,12.10
2019-03-18T12:03:42.638Z,12.00
2019-03-18T12:04:42.607Z,12.20
2019-03-18T12:05:42.592Z,12.10
2019-03-18T12:06:42.582Z,11.60
2019-03-18T12:07:42.559Z,11.50
2019-03-18T12:08:42.543Z,11.40
2019-03-18T12:09:42.525Z,11.50
2019-03-18T12:10:42.513Z,10.70
2019-03-18T12:11:42.485Z,11.70
2019-03-18T12:12:42.472Z,11.50
2019-03-18T12:13:42.459Z,11.80
2019-03-18T12:14:42.437Z,12.00
2019-03-18T12:15:42.420Z,12.00
2019-03-18T12:16:42.407Z,12.20
2019-03-18T12:17:42.385Z,11.70
2019-03-18T12:18:42.369Z,10.90
2019-03-18T12:19:42.356Z,10.90
2019-03-18T12:20:42.331Z,11.80
2019-03-18T12:21:42.313Z,11.20
2019-03-18T12:22:42.308Z,11.60
2019-03-18T12:23:42.277Z,10.30
2019-03-18T12:24:42.257Z,11.30
2019-03-18T12:25:42.236Z,11.20
2019-03-18T12:26:42.223Z,11.50
2019-03-18T12:27:42.205Z,11.70
2019-03-18T12:28:42.184Z,11.70
2019-03-18T12:29:42.170Z,10.90
2019-03-18T12:30:42.147Z,11.70
2019-03-18T12:31:42.129Z,13.40
2019-03-18T12:32:42.109Z,12.90
2019-03-18T12:33:42.092Z,12.80
2019-03-18T12:34:42.069Z,12.50
2019-03-18T12:35:42.057Z,12.70
2019-03-18T12:36:42.036Z,12.70
2019-03-18T12:37:42.020Z,12.90
2019-03-18T12:38:41.998Z,13.00
2019-03-18T12:39:41.984Z,11.60
2019-03-18T12:40:41.961Z,11.70
2019-03-18T12:41:41.942Z,12.30
2019-03-18T12:42:41.934Z,11.50
2019-03-18T12:43:41.907Z,11.10
2019-03-18T12:44:41.892Z,11.20
2019-03-18T12:45:41.874Z,12.00
2019-03-18T12:46:41.858Z,11.40
2019-03-18T12:47:41.841Z,11.30
2019-03-18T12:48:41.823Z,10.60
2019-03-18T12:49:41.800Z,10.60
2019-03-18T12:50:55.307Z,10.50
2019-03-18T12:51:41.768Z,10.90
2019-03-18T12:52:41.748Z,10.60
2019-03-18T12:53:41.733Z,10.70
2019-03-18T12:54:41.716Z,10.00